Time;durP1;ratioP1;P1;durP2;ratioP2;P2;SDS_P1;SDS_P2;PMS_P1;PMS_P2;Temp;Humidity;BMP_temperature;BMP_pressure;BME280_temperature;BME280_humidity;BME280_pressure;Samples;Min_cycle;Max_cycle;Signal;HPM_P1;HPM_P2
2019/06/07 00:01:43;;;;;;;10.3;9.1;;;;;;;9.97;91.81836;959.6186;;;;
2019/06/07 00:04:09;;;;;;;9.4;8.5;;;;;;;10.03;91.55371;959.5817;;;;
2019/06/07 00:06:43;;;;;;;9;8.1;;;;;;;10.01;91.67676;959.5588;;;;
2019/06/07 00:09:08;;;;;;;9.5;8.6;;;;;;;10.01;91.76855;959.4988;;;;
2019/06/07 00:11:39;;;;;;;12.5;10.5;;;;;;;10.03;91.74902;959.505;;;;
2019/06/07 00:14:04;;;;;;;10.7;9.7;;;;;;;10.08;91.62207;959.4451;;;;
2019/06/07 00:16:29;;;;;;;13.6;12.2;;;;;;;10.09;91.46484;959.4606;;;;
2019/06/07 00:19:00;;;;;;;13.1;11.8;;;;;;;10.1;91.5459;959.3406;;;;
2019/06/07 00:21:32;;;;;;;13.7;12.3;;;;;;;10.17;91.16895;959.3333;;;;
2019/06/07 00:23:57;;;;;;;15.1;13.6;;;;;;;10.29;90.91797;959.3465;;;;
2019/06/07 00:26:26;;;;;;;16.2;14.6;;;;;;;10.27;91.0625;959.3064;;;;
2019/06/07 00:28:51;;;;;;;15.6;14;;;;;;;10.21;91.25879;959.2567;;;;
2019/06/07 00:31:16;;;;;;;16;14.3;;;;;;;10.13;91.80664;959.0728;;;;
2019/06/07 00:33:41;;;;;;;15.8;14.2;;;;;;;10.12;91.82617;959.0616;;;;
2019/06/07 00:36:06;;;;;;;16.1;14.5;;;;;;;10.11;92.10059;959.0536;;;;
2019/06/07 00:38:31;;;;;;;15.2;13.7;;;;;;;10.09;91.7627;959.0775;;;;
2019/06/07 00:40:58;;;;;;;14.4;13;;;;;;;10.06;92.10254;959.0545;;;;
2019/06/07 00:43:24;;;;;;;15;13.2;;;;;;;10.02;92.1875;958.9866;;;;
2019/06/07 00:45:48;;;;;;;16.9;15.1;;;;;;;9.92;92.77539;959.0225;;;;
2019/06/07 00:48:13;;;;;;;16.9;15.1;;;;;;;9.87;92.98438;959.0106;;;;
2019/06/07 00:50:38;;;;;;;16.4;14.7;;;;;;;9.88;92.98438;958.993;;;;
2019/06/07 00:53:04;;;;;;;19.1;17.1;;;;;;;9.89;93.01172;959.0041;;;;
2019/06/07 00:55:29;;;;;;;20.4;18.2;;;;;;;9.87;93.22656;958.9423;;;;
2019/06/07 00:57:55;;;;;;;21.9;19.6;;;;;;;9.91;93.25684;958.9512;;;;
2019/06/07 01:00:21;;;;;;;22.3;19.9;;;;;;;9.99;93.27441;958.9258;;;;
2019/06/07 01:02:46;;;;;;;23.9;21.4;;;;;;;10.09;92.95215;958.9492;;;;
2019/06/07 01:05:13;;;;;;;25.5;22.9;;;;;;;10.09;93.01953;958.932;;;;
2019/06/07 01:07:38;;;;;;;23.3;20.9;;;;;;;10.1;92.96289;958.842;;;;
2019/06/07 01:10:06;;;;;;;26.2;22.8;;;;;;;10.03;93.17871;958.7596;;;;
2019/06/07 01:12:31;;;;;;;24.1;21.7;;;;;;;10.02;93.07324;958.7781;;;;
2019/06/07 01:15:03;;;;;;;23.6;21.1;;;;;;;10.07;93.01563;958.794;;;;
2019/06/07 01:17:28;;;;;;;26.5;23.7;;;;;;;10.01;93.12891;958.7317;;;;
2019/06/07 01:19:53;;;;;;;26.5;23.8;;;;;;;9.94;93.67969;958.8027;;;;
2019/06/07 01:22:19;;;;;;;27.1;24;;;;;;;10.01;93.53223;958.9107;;;;
2019/06/07 01:24:46;;;;;;;28;24.8;;;;;;;9.98;93.59277;958.8292;;;;
2019/06/07 01:27:11;;;;;;;29.2;25.8;;;;;;;9.86;94.10938;958.722;;;;
2019/06/07 01:29:36;;;;;;;31.6;28.3;;;;;;;9.85;94.16504;958.7101;;;;
2019/06/07 01:32:01;;;;;;;29.1;26;;;;;;;9.78;94.58887;958.5767;;;;
2019/06/07 01:34:26;;;;;;;29;25.6;;;;;;;9.82;94.13672;958.6788;;;;
2019/06/07 01:36:52;;;;;;;28.5;25.5;;;;;;;9.69;95.0166;958.6842;;;;
2019/06/07 01:39:39;;;;;;;31.1;27.7;;;;;;;9.64;95.13379;958.6635;;;;
2019/06/07 01:42:11;;;;;;;30.3;27.1;;;;;;;9.59;95.38867;958.6642;;;;
2019/06/07 01:44:41;;;;;;;33.5;29.9;;;;;;;9.54;95.50293;958.7121;;;;
2019/06/07 01:47:17;;;;;;;30.8;26.9;;;;;;;9.54;95.67383;958.6531;;;;
2019/06/07 01:49:53;;;;;;;31.5;26.1;;;;;;;9.48;95.83301;958.6124;;;;
2019/06/07 01:52:19;;;;;;;33.8;28;;;;;;;9.45;95.90918;958.6497;;;;
2019/06/07 01:54:50;;;;;;;29.8;26.1;;;;;;;9.43;95.93848;958.6131;;;;
2019/06/07 01:57:22;;;;;;;31.5;27.5;;;;;;;9.41;96.0127;958.573;;;;
2019/06/07 01:59:47;;;;;;;34.6;28.9;;;;;;;9.38;96.11035;958.6782;;;;
2019/06/07 02:02:12;;;;;;;32.8;27.3;;;;;;;9.35;96.32324;958.6041;;;;
2019/06/07 02:04:39;;;;;;;28.8;25.7;;;;;;;9.37;96.14453;958.5129;;;;
2019/06/07 02:07:05;;;;;;;30.6;27.3;;;;;;;9.38;96.26172;958.4347;;;;
2019/06/07 02:09:35;;;;;;;32.6;29.1;;;;;;;9.36;96.06055;958.4333;;;;
2019/06/07 02:12:00;;;;;;;30.9;27.5;;;;;;;9.38;95.9375;958.3717;;;;
2019/06/07 02:14:25;;;;;;;29.3;26.1;;;;;;;9.39;95.53906;958.336;;;;
2019/06/07 02:16:55;;;;;;;31.3;27.9;;;;;;;9.33;95.88184;958.291;;;;
2019/06/07 02:19:43;;;;;;;32.9;27.8;;;;;;;9.33;96.01953;958.351;;;;
2019/06/07 02:22:14;;;;;;;28;25;;;;;;;9.31;95.77441;958.2975;;;;
2019/06/07 02:24:40;;;;;;;30.6;26.8;;;;;;;9.24;96;958.3004;;;;
2019/06/07 02:27:05;;;;;;;34.5;29.5;;;;;;;9.2;96.40625;958.3466;;;;
2019/06/07 02:29:30;;;;;;;31.6;26.9;;;;;;;9.15;96.6582;958.4247;;;;
2019/06/07 02:31:55;;;;;;;33.7;29.2;;;;;;;9.11;96.9248;958.4501;;;;
2019/06/07 02:34:20;;;;;;;41.7;30.8;;;;;;;9.02;97.21484;958.4339;;;;
2019/06/07 02:36:45;;;;;;;33.2;28.5;;;;;;;9.05;97.23242;958.4692;;;;
2019/06/07 02:39:11;;;;;;;34.8;29.7;;;;;;;9.05;97.38379;958.4771;;;;
2019/06/07 02:41:38;;;;;;;33.9;29.4;;;;;;;9.07;97.42285;958.505;;;;
2019/06/07 02:44:04;;;;;;;39.3;31.4;;;;;;;9.09;97.47266;958.546;;;;
2019/06/07 02:46:29;;;;;;;40.2;32;;;;;;;9.04;97.36816;958.5211;;;;
2019/06/07 02:48:55;;;;;;;39.1;32.3;;;;;;;9.09;97.59863;958.4437;;;;
2019/06/07 02:51:19;;;;;;;35.6;30.6;;;;;;;9.17;97.41016;958.3929;;;;
2019/06/07 02:53:45;;;;;;;40.3;33.3;;;;;;;9.2;97.24609;958.3937;;;;
2019/06/07 02:56:10;;;;;;;41.1;33.4;;;;;;;9.19;97.3916;958.3777;;;;
2019/06/07 02:58:45;;;;;;;43.3;34.9;;;;;;;9.22;97.44531;958.413;;;;
2019/06/07 03:01:11;;;;;;;42.9;35.2;;;;;;;9.3;97.15234;958.3622;;;;
2019/06/07 03:03:36;;;;;;;38.6;33.2;;;;;;;9.34;96.88672;958.2944;;;;
2019/06/07 03:06:01;;;;;;;40.5;33.7;;;;;;;9.29;96.94336;958.231;;;;
2019/06/07 03:08:26;;;;;;;44.9;37.1;;;;;;;9.29;97.24316;958.2654;;;;
2019/06/07 03:10:52;;;;;;;41.4;34.4;;;;;;;9.28;97.40234;958.2662;;;;
2019/06/07 03:13:20;;;;;;;43.7;34.3;;;;;;;9.34;96.88477;958.2136;;;;
2019/06/07 03:15:45;;;;;;;44.9;34.4;;;;;;;9.29;97.25391;958.2143;;;;
2019/06/07 03:18:49;;;;;;;38;32.7;;;;;;;9.4;96.66895;958.2123;;;;
2019/06/07 03:20:48;;;;;;;43.6;35.5;;;;;;;9.25;97.27832;958.2142;;;;
2019/06/07 03:23:14;;;;;;;41.3;34.4;;;;;;;9.28;97.21777;958.2495;;;;
2019/06/07 03:25:40;;;;;;;41.5;34.1;;;;;;;9.33;97.07813;958.2064;;;;
2019/06/07 03:28:05;;;;;;;41;34.2;;;;;;;9.35;96.71387;958.1571;;;;
2019/06/07 03:30:31;;;;;;;41.6;35;;;;;;;9.42;96.74414;958.1794;;;;
2019/06/07 03:32:56;;;;;;;42.1;34.5;;;;;;;9.48;96.61523;958.2508;;;;
2019/06/07 03:35:22;;;;;;;45.1;36.9;;;;;;;9.47;96.51172;958.2467;;;;
2019/06/07 03:37:47;;;;;;;45.2;35.7;;;;;;;9.5;96.55273;958.2913;;;;
2019/06/07 03:40:12;;;;;;;45.9;37.7;;;;;;;9.5;96.73633;958.2531;;;;
2019/06/07 03:42:37;;;;;;;46.3;37.7;;;;;;;9.55;96.67773;958.2051;;;;
2019/06/07 03:45:02;;;;;;;45.3;36.5;;;;;;;9.59;96.51465;958.1964;;;;
2019/06/07 03:47:28;;;;;;;45.5;37.1;;;;;;;9.62;96.5;958.1973;;;;
2019/06/07 03:49:53;;;;;;;44.1;36.6;;;;;;;9.63;96.39844;958.2308;;;;
2019/06/07 03:52:18;;;;;;;42.8;34.7;;;;;;;9.69;96.11133;958.1987;;;;
2019/06/07 03:54:45;;;;;;;44.7;36.9;;;;;;;9.63;96.07617;958.2004;;;;
2019/06/07 03:57:10;;;;;;;46.7;36.7;;;;;;;9.69;95.76758;958.1559;;;;
2019/06/07 03:59:35;;;;;;;43.1;35.1;;;;;;;9.71;95.93262;958.1111;;;;
2019/06/07 04:02:42;;;;;;;43.7;35.4;;;;;;;9.72;95.99219;958.0798;;;;
2019/06/07 04:05:08;;;;;;;41.7;35;;;;;;;9.89;95.36133;958.067;;;;
2019/06/07 04:07:42;;;;;;;42.1;33.1;;;;;;;9.89;95.32715;958.1476;;;;
2019/06/07 04:10:27;;;;;;;37.9;30.8;;;;;;;9.94;95.37305;958.1892;;;;
2019/06/07 04:12:56;;;;;;;43;35.6;;;;;;;9.9;95.07324;958.2156;;;;
2019/06/07 04:15:21;;;;;;;42.2;33.9;;;;;;;9.85;95.07715;958.2539;;;;
2019/06/07 04:17:51;;;;;;;37.8;32.4;;;;;;;9.96;94.6748;958.1702;;;;
2019/06/07 04:20:16;;;;;;;41;32.5;;;;;;;9.97;94.68848;958.2125;;;;
2019/06/07 04:22:41;;;;;;;37.8;32.8;;;;;;;10.02;94.51563;958.2235;;;;
2019/06/07 04:25:06;;;;;;;37.7;32.6;;;;;;;10.05;94.55371;958.272;;;;
2019/06/07 04:27:31;;;;;;;34.9;30.4;;;;;;;10.07;94.45801;958.201;;;;
2019/06/07 04:29:56;;;;;;;35.1;31.3;;;;;;;10;94.68262;958.1875;;;;
2019/06/07 04:32:22;;;;;;;38.4;32.9;;;;;;;9.91;95.19043;958.3082;;;;
2019/06/07 04:34:46;;;;;;;39.3;33.5;;;;;;;9.94;95.0625;958.3042;;;;
2019/06/07 04:37:13;;;;;;;37.4;31.1;;;;;;;10.07;94.94922;958.317;;;;
2019/06/07 04:39:38;;;;;;;36.4;31.1;;;;;;;10.14;94.73633;958.2706;;;;
2019/06/07 04:42:08;;;;;;;38.7;31.7;;;;;;;10.07;94.84961;958.265;;;;
2019/06/07 04:44:33;;;;;;;41.1;33.3;;;;;;;10.08;94.72266;958.2681;;;;
2019/06/07 04:46:58;;;;;;;39.4;31.9;;;;;;;10.23;94.53711;958.2617;;;;
2019/06/07 04:49:36;;;;;;;40.5;33.3;;;;;;;10.21;94.5332;958.327;;;;
2019/06/07 04:52:01;;;;;;;37.2;32.4;;;;;;;10.23;94.44531;958.3041;;;;
2019/06/07 04:54:31;;;;;;;42;34;;;;;;;10.16;95.09766;958.3536;;;;
2019/06/07 04:57:07;;;;;;;44.3;32.1;;;;;;;10.24;94.62012;958.3839;;;;
2019/06/07 04:59:42;;;;;;;38.1;31.4;;;;;;;10.32;94.52246;958.3713;;;;
2019/06/07 05:02:19;;;;;;;36.3;30.8;;;;;;;10.38;94.32617;958.4039;;;;
2019/06/07 05:04:43;;;;;;;42.4;34.4;;;;;;;10.3;94.8623;958.3184;;;;
2019/06/07 05:07:09;;;;;;;40.3;33.2;;;;;;;10.38;94.45313;958.3311;;;;
2019/06/07 05:09:34;;;;;;;41.7;33.7;;;;;;;10.51;93.71875;958.2877;;;;
2019/06/07 05:11:59;;;;;;;41.6;32;;;;;;;10.58;93.72461;958.2411;;;;
2019/06/07 05:14:24;;;;;;;41.6;33.2;;;;;;;10.61;93.62695;958.2336;;;;
2019/06/07 05:16:50;;;;;;;37.1;31.4;;;;;;;10.8;92.85938;958.2858;;;;
2019/06/07 05:19:16;;;;;;;38;30.4;;;;;;;10.87;92.50488;958.2272;;;;
2019/06/07 05:21:41;;;;;;;34.1;30.2;;;;;;;10.97;92.00879;958.2882;;;;
2019/06/07 05:24:07;;;;;;;34.7;29.4;;;;;;;11.07;92.19141;958.2095;;;;
2019/06/07 05:26:32;;;;;;;33.8;30.1;;;;;;;11.05;91.96777;958.2544;;;;
2019/06/07 05:28:57;;;;;;;36.6;30.1;;;;;;;11.24;90.99023;958.1517;;;;
2019/06/07 05:31:30;;;;;;;33.4;27.5;;;;;;;11.3;90.82813;958.1074;;;;
2019/06/07 05:33:56;;;;;;;31.9;27;;;;;;;11.32;90.48535;958.0878;;;;
2019/06/07 05:36:21;;;;;;;34.3;29;;;;;;;11.27;90.65918;958.017;;;;
2019/06/07 05:39:02;;;;;;;30.2;25.5;;;;;;;11.43;90.2207;958.0584;;;;
2019/06/07 05:41:38;;;;;;;31.1;26.3;;;;;;;11.57;89.42676;958.0903;;;;
2019/06/07 05:44:06;;;;;;;28.3;25;;;;;;;11.7;89.13281;958.0324;;;;
2019/06/07 05:46:50;;;;;;;28.7;25.5;;;;;;;11.69;89.08301;958.0767;;;;
2019/06/07 05:49:15;;;;;;;28.7;25.6;;;;;;;11.79;88.5127;958.0862;;;;
2019/06/07 05:51:51;;;;;;;29.8;25.2;;;;;;;11.88;88.31152;958.077;;;;
2019/06/07 05:54:16;;;;;;;28.2;25.1;;;;;;;12.09;87.59082;958.1425;;;;
2019/06/07 05:56:56;;;;;;;28.9;25.1;;;;;;;12.15;87.54492;958.0584;;;;
2019/06/07 05:59:21;;;;;;;28.5;24.1;;;;;;;12.2;87.01172;958.0571;;;;
2019/06/07 06:01:48;;;;;;;27.8;22.4;;;;;;;12.33;86.20215;958.055;;;;
2019/06/07 06:04:13;;;;;;;23.3;20.8;;;;;;;12.48;86.00098;957.9734;;;;
2019/06/07 06:06:38;;;;;;;24.6;22;;;;;;;12.61;85.64258;957.9974;;;;
2019/06/07 06:09:07;;;;;;;22.9;20.3;;;;;;;12.6;84.69043;957.9638;;;;
2019/06/07 06:11:32;;;;;;;23.5;21;;;;;;;12.55;85.0166;957.8882;;;;
2019/06/07 06:14:01;;;;;;;21.8;19.6;;;;;;;12.58;84.7334;957.9874;;;;
2019/06/07 06:16:27;;;;;;;22.7;20.3;;;;;;;12.59;85.03809;957.9391;;;;
2019/06/07 06:18:52;;;;;;;22.3;19.9;;;;;;;12.82;84.45605;957.925;;;;
2019/06/07 06:21:18;;;;;;;22.8;20.4;;;;;;;12.82;84.13086;957.8954;;;;
2019/06/07 06:24:04;;;;;;;21.8;19.6;;;;;;;13.12;84.06055;957.8603;;;;
2019/06/07 06:26:30;;;;;;;22.2;19.9;;;;;;;13.16;83.4873;957.839;;;;
2019/06/07 06:28:58;;;;;;;20.8;18.6;;;;;;;13.37;82.36621;957.7581;;;;
2019/06/07 06:31:23;;;;;;;21.9;19.6;;;;;;;13.27;82.64941;957.7869;;;;
2019/06/07 06:33:48;;;;;;;20.5;18.3;;;;;;;13.45;82.41699;957.7698;;;;
2019/06/07 06:36:14;;;;;;;19.4;17.4;;;;;;;13.59;81.77148;957.714;;;;
2019/06/07 06:38:40;;;;;;;19.3;17.3;;;;;;;13.8;81.73828;957.7194;;;;
2019/06/07 06:41:05;;;;;;;20;17.9;;;;;;;13.75;81.49805;957.7161;;;;
2019/06/07 06:43:30;;;;;;;18.6;16.8;;;;;;;13.9;80.33887;957.7369;;;;
2019/06/07 06:46:01;;;;;;;18.7;16.7;;;;;;;14.19;80.17188;957.8172;;;;
2019/06/07 06:48:26;;;;;;;17.6;15.8;;;;;;;14.13;78.91504;957.6961;;;;
2019/06/07 06:51:00;;;;;;;18.4;16;;;;;;;14.17;80.37793;957.6777;;;;
2019/06/07 06:53:25;;;;;;;18.2;16;;;;;;;14.26;78.80957;957.8089;;;;
2019/06/07 06:55:50;;;;;;;18.8;16.8;;;;;;;14.17;79.80762;957.7806;;;;
2019/06/07 06:58:16;;;;;;;17.9;16;;;;;;;14.41;79.16504;957.7899;;;;
2019/06/07 07:00:44;;;;;;;20.7;16.7;;;;;;;14.27;79.09277;957.6742;;;;
2019/06/07 07:03:10;;;;;;;16.9;15.1;;;;;;;14.55;78.4209;957.6264;;;;
2019/06/07 07:05:36;;;;;;;18.3;15.5;;;;;;;14.79;77.42676;957.7256;;;;
2019/06/07 07:08:15;;;;;;;17.6;15.7;;;;;;;14.72;77.15918;957.6182;;;;
2019/06/07 07:10:40;;;;;;;18.3;16.2;;;;;;;14.69;77.64258;957.6219;;;;
2019/06/07 07:13:05;;;;;;;16.5;14.6;;;;;;;14.91;76.66797;957.5733;;;;
2019/06/07 07:15:30;;;;;;;14.6;13;;;;;;;15.14;75.84473;957.5698;;;;
2019/06/07 07:17:57;;;;;;;16.8;15;;;;;;;15.13;75.85449;957.5064;;;;
2019/06/07 07:20:30;;;;;;;14.7;12.8;;;;;;;15.51;75.39648;957.4872;;;;
2019/06/07 07:23:11;;;;;;;16.2;13.4;;;;;;;15.37;75.40625;957.3939;;;;
2019/06/07 07:25:51;;;;;;;14.2;12.7;;;;;;;15.52;74.84766;957.3106;;;;
2019/06/07 07:28:16;;;;;;;13;11.6;;;;;;;15.73;74.90918;957.2484;;;;
2019/06/07 07:30:41;;;;;;;13.3;11.9;;;;;;;15.97;74.86914;957.1955;;;;
2019/06/07 07:33:06;;;;;;;12.7;11.4;;;;;;;16.14;72.08105;957.1346;;;;
2019/06/07 07:35:31;;;;;;;12.9;10.4;;;;;;;16.29;72.60742;957.1411;;;;
2019/06/07 07:37:56;;;;;;;12.5;11.1;;;;;;;16.42;72.47559;957.1586;;;;
2019/06/07 07:40:21;;;;;;;12.9;10.5;;;;;;;16.49;71.5166;957.0929;;;;
2019/06/07 07:42:47;;;;;;;12.7;10.4;;;;;;;16.67;72.18945;957.121;;;;
2019/06/07 07:45:25;;;;;;;11.3;10.1;;;;;;;16.79;70.55957;957.074;;;;
2019/06/07 07:47:58;;;;;;;11.7;9.6;;;;;;;16.72;71.46094;957.0233;;;;
2019/06/07 07:50:27;;;;;;;11.9;10.2;;;;;;;16.69;70.94141;956.9799;;;;
2019/06/07 07:52:53;;;;;;;11.1;9.8;;;;;;;16.94;70.54785;956.9081;;;;
2019/06/07 07:55:18;;;;;;;12.2;10.3;;;;;;;16.96;71.10254;956.8484;;;;
2019/06/07 07:57:43;;;;;;;10.7;9.7;;;;;;;17.03;70.95117;956.7394;;;;
2019/06/07 08:00:08;;;;;;;10.5;9.5;;;;;;;17.23;70.47949;956.6735;;;;
2019/06/07 08:02:33;;;;;;;10.6;8.9;;;;;;;17.73;69.15137;956.6603;;;;
2019/06/07 08:04:58;;;;;;;11.1;9.5;;;;;;;17.43;69.32715;956.646;;;;
2019/06/07 08:07:24;;;;;;;11.1;10.1;;;;;;;17.4;68.73633;956.6245;;;;
2019/06/07 08:09:48;;;;;;;10;9;;;;;;;17.67;69.55078;956.5795;;;;
2019/06/07 08:12:13;;;;;;;15.3;13;;;;;;;17.83;68.42773;956.5948;;;;
2019/06/07 08:14:38;;;;;;;12.4;10.3;;;;;;;17.99;68.76855;956.4739;;;;
2019/06/07 08:17:14;;;;;;;11.6;9.8;;;;;;;18;69.0293;956.4717;;;;
2019/06/07 08:19:50;;;;;;;9.3;8.4;;;;;;;18.34;67.19141;956.4889;;;;
2019/06/07 08:22:16;;;;;;;8.8;7.9;;;;;;;18.61;67.0332;956.4247;;;;
2019/06/07 08:24:45;;;;;;;9.3;8.3;;;;;;;18.59;66.84082;956.4408;;;;
2019/06/07 08:27:10;;;;;;;9.6;7.8;;;;;;;18.78;66.45898;956.3349;;;;
2019/06/07 08:29:35;;;;;;;10.3;7.9;;;;;;;18.99;66.85449;956.2792;;;;
2019/06/07 08:32:00;;;;;;;9;8.1;;;;;;;19.09;65.89258;956.3904;;;;
2019/06/07 08:34:26;;;;;;;9.7;8.1;;;;;;;19.1;66.41211;956.3542;;;;
2019/06/07 08:36:51;;;;;;;11.7;8.5;;;;;;;19.08;65.62207;956.3825;;;;
2019/06/07 08:39:16;;;;;;;11.4;9.3;;;;;;;19.33;65.55176;956.2726;;;;
2019/06/07 08:41:41;;;;;;;8.8;7.9;;;;;;;19.45;66.08887;956.3378;;;;
2019/06/07 08:44:06;;;;;;;9.5;8.5;;;;;;;19.53;66.83105;956.2955;;;;
2019/06/07 08:46:31;;;;;;;9.3;8.3;;;;;;;19.51;65.0957;956.1729;;;;
2019/06/07 08:49:01;;;;;;;8.6;7.7;;;;;;;19.53;66.20703;956.1736;;;;
2019/06/07 08:51:28;;;;;;;8.7;7.3;;;;;;;19.77;64.3457;956.1945;;;;
2019/06/07 08:53:53;;;;;;;10;7.9;;;;;;;19.65;64.88086;956.2645;;;;
2019/06/07 08:56:20;;;;;;;10.1;9.1;;;;;;;19.4;64.37305;956.2317;;;;
2019/06/07 08:58:50;;;;;;;9.7;8.7;;;;;;;19.73;64.20996;956.2403;;;;
2019/06/07 09:01:17;;;;;;;10.5;9;;;;;;;20.11;63.70996;956.2404;;;;
2019/06/07 09:03:41;;;;;;;9.2;8.2;;;;;;;19.89;63.93945;956.2114;;;;
2019/06/07 09:06:06;;;;;;;8.3;7.4;;;;;;;20.05;64.04395;956.1702;;;;
2019/06/07 09:08:32;;;;;;;9.7;7.8;;;;;;;20.07;62.37207;956.2461;;;;
2019/06/07 09:10:57;;;;;;;9.8;8.8;;;;;;;20.27;62.74219;956.2498;;;;
2019/06/07 09:13:23;;;;;;;8.4;7.5;;;;;;;20.33;64.27344;956.1889;;;;
2019/06/07 09:15:50;;;;;;;10;8.2;;;;;;;20.38;61.94336;956.2209;;;;
2019/06/07 09:18:15;;;;;;;9.8;7.8;;;;;;;20.97;61.94434;956.1223;;;;
2019/06/07 09:20:40;;;;;;;9;7.7;;;;;;;20.81;60.76367;956.1602;;;;
2019/06/07 09:23:05;;;;;;;8;7.2;;;;;;;21.1;61.14648;956.1204;;;;
2019/06/07 09:25:30;;;;;;;8.1;7.3;;;;;;;20.99;59.44141;956.111;;;;
2019/06/07 09:27:56;;;;;;;8.2;7.5;;;;;;;21.18;62.39844;956.1295;;;;
2019/06/07 09:30:22;;;;;;;10.7;8.7;;;;;;;20.98;60.96484;956.0559;;;;
2019/06/07 09:32:48;;;;;;;8.2;7.4;;;;;;;21.56;60.28613;955.9842;;;;
2019/06/07 09:35:13;;;;;;;9.3;7.8;;;;;;;21.18;58.9707;956.0203;;;;
2019/06/07 09:37:40;;;;;;;10.1;7.5;;;;;;;21.78;61.01563;955.9745;;;;
2019/06/07 09:40:06;;;;;;;8.7;7.4;;;;;;;22.02;59.2002;956.0242;;;;
2019/06/07 09:42:30;;;;;;;8.1;7.3;;;;;;;22.18;57.5625;955.9688;;;;
2019/06/07 09:44:58;;;;;;;10.9;7.5;;;;;;;22.07;59.21875;955.9244;;;;
2019/06/07 09:47:23;;;;;;;9.7;7.2;;;;;;;22.31;58.5166;955.8389;;;;
2019/06/07 09:49:50;;;;;;;8.9;7.2;;;;;;;22.35;57.41797;955.7073;;;;
2019/06/07 09:52:15;;;;;;;6.3;5.7;;;;;;;23.14;57.27246;955.6311;;;;
2019/06/07 09:54:40;;;;;;;8.5;7.6;;;;;;;22.43;57.04883;955.5817;;;;
2019/06/07 09:57:05;;;;;;;9.5;6.1;;;;;;;23.37;56.46973;955.6247;;;;
2019/06/07 09:59:31;;;;;;;9.5;7.3;;;;;;;22.71;57.66699;955.5572;;;;
2019/06/07 10:02:04;;;;;;;9.1;7;;;;;;;22.91;55.41602;955.5028;;;;
2019/06/07 10:04:50;;;;;;;11.4;6.9;;;;;;;22.97;58.7207;955.5162;;;;
2019/06/07 10:07:19;;;;;;;8.7;6.6;;;;;;;23.29;56.95801;955.5239;;;;
2019/06/07 10:09:44;;;;;;;8.2;6.9;;;;;;;23.42;56.8916;955.4551;;;;
2019/06/07 10:12:11;;;;;;;7.9;6;;;;;;;23.76;56.51953;955.4167;;;;
2019/06/07 10:14:36;;;;;;;7.4;6.3;;;;;;;23.16;55.29102;955.3533;;;;
2019/06/07 10:17:01;;;;;;;7.4;6.5;;;;;;;23.39;54.27441;955.3951;;;;
2019/06/07 10:19:26;;;;;;;6.7;6.1;;;;;;;23.98;54.95215;955.3889;;;;
2019/06/07 10:21:51;;;;;;;6.9;6.2;;;;;;;23.72;54.00488;955.3669;;;;
2019/06/07 10:24:20;;;;;;;8.8;5.3;;;;;;;24.61;52.71973;955.4169;;;;
2019/06/07 10:26:45;;;;;;;6.3;5.5;;;;;;;24.11;52.98145;955.405;;;;
2019/06/07 10:29:21;;;;;;;7.3;4.7;;;;;;;24.63;53.88867;955.3186;;;;
2019/06/07 10:31:47;;;;;;;6.4;5.3;;;;;;;25.33;49.88086;955.3775;;;;
2019/06/07 10:34:15;;;;;;;7.4;5.5;;;;;;;25.07;49.79199;955.3251;;;;
2019/06/07 10:36:40;;;;;;;8.3;5.2;;;;;;;25.07;52.97656;955.308;;;;
2019/06/07 10:39:05;;;;;;;7.7;6;;;;;;;25.47;52.09277;955.3259;;;;
2019/06/07 10:41:30;;;;;;;7.1;6;;;;;;;25.16;51.01758;955.2847;;;;
2019/06/07 10:43:55;;;;;;;7.3;6.2;;;;;;;25.34;49.78516;955.2228;;;;
2019/06/07 10:46:21;;;;;;;7.9;5.7;;;;;;;25.88;49.03418;955.2723;;;;
2019/06/07 10:48:45;;;;;;;7.1;6.1;;;;;;;25.06;50.80371;955.1707;;;;
2019/06/07 10:51:11;;;;;;;12.7;7;;;;;;;25.74;49.99805;955.1913;;;;
2019/06/07 10:53:36;;;;;;;7.8;6.1;;;;;;;25.88;50.93359;955.2383;;;;
2019/06/07 10:56:04;;;;;;;8.3;5.3;;;;;;;25.67;48.72461;955.1785;;;;
2019/06/07 10:58:29;;;;;;;7.4;5.3;;;;;;;25.63;49.87793;955.2414;;;;
2019/06/07 11:00:54;;;;;;;7.1;5.4;;;;;;;26.13;46.89746;955.2502;;;;
2019/06/07 11:03:23;;;;;;;8.3;5.7;;;;;;;26.32;50.80371;955.2084;;;;
2019/06/07 11:05:48;;;;;;;5.7;4.5;;;;;;;27.05;47.3291;955.1296;;;;
2019/06/07 11:08:14;;;;;;;8.2;5.3;;;;;;;27.04;45.74707;955.0666;;;;
2019/06/07 11:10:39;;;;;;;7.7;5.1;;;;;;;26.75;47.59668;955.0928;;;;
2019/06/07 11:13:08;;;;;;;5.6;5.1;;;;;;;26.77;46.4375;955.0229;;;;
2019/06/07 11:15:33;;;;;;;7.8;5.1;;;;;;;26.79;47.97168;954.998;;;;
2019/06/07 11:17:58;;;;;;;8.6;4.8;;;;;;;27.21;45.28516;954.9745;;;;
2019/06/07 11:20:24;;;;;;;5.8;4.6;;;;;;;27;46.56836;955.0038;;;;
2019/06/07 11:22:52;;;;;;;6.6;4.9;;;;;;;27.13;48.58301;954.9188;;;;
2019/06/07 11:25:17;;;;;;;6.8;5.7;;;;;;;25.82;47.97656;954.8675;;;;
2019/06/07 11:27:45;;;;;;;6;4.8;;;;;;;26.41;49.43945;954.9203;;;;
2019/06/07 11:30:10;;;;;;;5.7;4.7;;;;;;;26.94;44.83887;954.8428;;;;
2019/06/07 11:32:35;;;;;;;6.2;4.8;;;;;;;27.47;43.30762;954.8575;;;;
2019/06/07 11:35:04;;;;;;;6.5;5;;;;;;;27.97;42.96191;954.8475;;;;
2019/06/07 11:37:36;;;;;;;6.5;4.3;;;;;;;28.02;43.56641;954.8035;;;;
2019/06/07 11:40:09;;;;;;;6;4.5;;;;;;;28.06;42.74121;954.8412;;;;
2019/06/07 11:42:40;;;;;;;5.9;5.1;;;;;;;27.5;43.29883;954.7731;;;;
2019/06/07 11:45:06;;;;;;;7.1;4.9;;;;;;;27.61;44.80957;954.7874;;;;
2019/06/07 11:47:40;;;;;;;5.8;5.2;;;;;;;27.94;44.45801;954.6824;;;;
2019/06/07 11:50:11;;;;;;;4.9;4.3;;;;;;;28.63;42.97461;954.7303;;;;
2019/06/07 11:52:37;;;;;;;6.5;4.6;;;;;;;28.63;42.21875;954.6855;;;;
2019/06/07 11:55:05;;;;;;;8.2;5.5;;;;;;;28.39;42.20898;954.5853;;;;
2019/06/07 11:57:34;;;;;;;5.6;4.6;;;;;;;28.46;42.55078;954.538;;;;
2019/06/07 11:59:59;;;;;;;5.7;4.2;;;;;;;29.57;40.08984;954.5597;;;;
2019/06/07 12:02:25;;;;;;;5.6;4.3;;;;;;;29.5;40.54199;954.5198;;;;
2019/06/07 12:04:50;;;;;;;5.9;3.8;;;;;;;29.61;39.99609;954.5839;;;;
2019/06/07 12:07:16;;;;;;;5.6;3.9;;;;;;;29.23;40.74609;954.5991;;;;
2019/06/07 12:09:57;;;;;;;5.9;4.5;;;;;;;28.01;43.67285;954.551;;;;
2019/06/07 12:12:28;;;;;;;4.8;4.3;;;;;;;28.39;45.30762;954.4103;;;;
2019/06/07 12:15:01;;;;;;;6.8;3.9;;;;;;;29.24;41.60156;954.4471;;;;
2019/06/07 12:17:49;;;;;;;7;4.4;;;;;;;30.4;38.4502;954.4217;;;;
2019/06/07 12:20:14;;;;;;;6.5;4.5;;;;;;;29.58;41.24707;954.2866;;;;
2019/06/07 12:22:45;;;;;;;5;4.1;;;;;;;30.23;37.63867;954.2869;;;;
2019/06/07 12:25:11;;;;;;;5.1;4.3;;;;;;;29.57;40.15039;954.2654;;;;
2019/06/07 12:27:36;;;;;;;7.5;4.3;;;;;;;30.22;37.94043;954.1619;;;;
2019/06/07 12:30:01;;;;;;;5.5;3.8;;;;;;;30.06;38.9873;954.1269;;;;
2019/06/07 12:32:27;;;;;;;4;3.6;;;;;;;31.11;35.82715;954.1092;;;;
2019/06/07 12:34:52;;;;;;;4.8;3.7;;;;;;;30.46;37.24805;954.0478;;;;
2019/06/07 12:37:17;;;;;;;5.4;4;;;;;;;29.87;37.64453;954.0455;;;;
2019/06/07 12:39:42;;;;;;;5.7;3.8;;;;;;;29.84;40.45215;954.05;;;;
2019/06/07 12:42:15;;;;;;;4.6;3.9;;;;;;;30.32;37.98438;954.1119;;;;
2019/06/07 12:44:41;;;;;;;6.1;3.9;;;;;;;31.24;35.0752;954.0661;;;;
2019/06/07 12:47:09;;;;;;;5.2;4.1;;;;;;;29.95;37.35059;953.9934;;;;
2019/06/07 12:49:40;;;;;;;7;4;;;;;;;30.3;37.57227;953.9924;;;;
2019/06/07 12:52:25;;;;;;;5.7;3.9;;;;;;;30.28;37.25781;953.9031;;;;
2019/06/07 12:55:04;;;;;;;5.5;4;;;;;;;31.1;37.55371;953.9444;;;;
2019/06/07 12:57:30;;;;;;;6.1;4;;;;;;;31.47;37.52441;953.9144;;;;
2019/06/07 12:59:55;;;;;;;4.6;3.9;;;;;;;31.32;35.7832;953.8474;;;;
2019/06/07 13:02:20;;;;;;;4.9;4.1;;;;;;;31.61;35.46777;953.8588;;;;
2019/06/07 13:04:45;;;;;;;9.6;4.3;;;;;;;31.73;34.79785;953.8353;;;;
2019/06/07 13:07:13;;;;;;;5.3;3.8;;;;;;;30.72;36.18262;953.834;;;;
2019/06/07 13:10:01;;;;;;;7.8;4.1;;;;;;;30.58;35.80957;953.7553;;;;
2019/06/07 13:12:26;;;;;;;6;3.9;;;;;;;32.29;33.30273;953.7598;;;;
2019/06/07 13:14:51;;;;;;;7.1;4.2;;;;;;;31.68;35.77441;953.7614;;;;
2019/06/07 13:17:17;;;;;;;6.2;4.2;;;;;;;31.38;34.82031;953.7369;;;;
2019/06/07 13:19:42;;;;;;;6.3;3.9;;;;;;;31.1;35.89844;953.7104;;;;
2019/06/07 13:22:16;;;;;;;5.6;4;;;;;;;31.12;35.5498;953.7495;;;;
2019/06/07 13:24:43;;;;;;;3.6;3.3;;;;;;;31.91;34.61816;953.715;;;;
2019/06/07 13:27:08;;;;;;;6.6;3.9;;;;;;;30.53;36.39648;953.5905;;;;
2019/06/07 13:29:48;;;;;;;5.8;3.8;;;;;;;31.84;34.92773;953.593;;;;
2019/06/07 13:32:13;;;;;;;5.2;4;;;;;;;30.31;38.42969;953.6211;;;;
2019/06/07 13:34:38;;;;;;;4.7;3.8;;;;;;;30.89;34.98828;953.6287;;;;
2019/06/07 13:37:03;;;;;;;6.2;4;;;;;;;31.59;35.19922;953.6119;;;;
2019/06/07 13:39:29;;;;;;;5.8;3.7;;;;;;;32.53;32.85938;953.6278;;;;
2019/06/07 13:41:59;;;;;;;5.1;3.8;;;;;;;32.7;33.2959;953.6194;;;;
2019/06/07 13:44:24;;;;;;;6.4;4.1;;;;;;;31.96;35.82129;953.6775;;;;
2019/06/07 13:46:59;;;;;;;5.7;4.1;;;;;;;33.18;32.87012;953.6292;;;;
2019/06/07 13:49:30;;;;;;;5.3;3.4;;;;;;;32.19;34.51855;953.5911;;;;
2019/06/07 13:51:55;;;;;;;5.4;3.9;;;;;;;32.78;32.71973;953.6362;;;;
2019/06/07 13:54:37;;;;;;;5.6;4.1;;;;;;;33.13;31.94336;953.6577;;;;
2019/06/07 13:57:17;;;;;;;6.5;3.9;;;;;;;31.52;34.63672;953.569;;;;
2019/06/07 13:59:42;;;;;;;6;4;;;;;;;31.49;33.09766;953.5753;;;;
2019/06/07 14:02:07;;;;;;;4.2;3.8;;;;;;;31.48;33.9209;953.6205;;;;
2019/06/07 14:04:52;;;;;;;5;3.6;;;;;;;33.01;31.63184;953.5053;;;;
2019/06/07 14:07:32;;;;;;;5.5;4;;;;;;;31.34;34.16406;953.4777;;;;
2019/06/07 14:10:04;;;;;;;6.3;3.8;;;;;;;32.15;34.08008;953.4002;;;;
2019/06/07 14:12:33;;;;;;;5.6;3.9;;;;;;;32.21;33.70898;953.3969;;;;
2019/06/07 14:15:01;;;;;;;5.4;3.8;;;;;;;32.14;33.60547;953.3502;;;;
2019/06/07 14:17:27;;;;;;;6;3.5;;;;;;;32.66;35.34277;953.317;;;;
2019/06/07 14:19:52;;;;;;;8.7;4;;;;;;;31.26;34.90723;953.2776;;;;